createdAt,value
2017-10-30T04:31:22.785Z,3.20
2017-10-30T04:33:50.358Z,2.87
2017-10-30T04:36:17.974Z,2.15
2017-10-30T04:38:45.649Z,3.00
2017-10-30T04:41:13.991Z,2.58
2017-10-30T04:43:41.782Z,2.50
2017-10-30T04:46:10.154Z,2.55
2017-10-30T04:48:37.842Z,2.58
2017-10-30T04:51:05.593Z,2.42
2017-10-30T04:53:33.938Z,3.28
2017-10-30T04:56:02.342Z,2.85
2017-10-30T04:58:30.705Z,2.70
2017-10-30T05:00:58.381Z,2.40
2017-10-30T05:03:26.729Z,2.62
2017-10-30T05:05:54.314Z,2.60
2017-10-30T05:08:22.699Z,4.03
2017-10-30T05:10:51.071Z,2.70
2017-10-30T05:13:19.426Z,2.95
2017-10-30T05:15:48.545Z,2.62
2017-10-30T05:18:16.913Z,2.65
2017-10-30T05:20:45.294Z,2.33
2017-10-30T05:23:13.770Z,2.83
2017-10-30T05:25:42.150Z,3.17
2017-10-30T05:28:10.526Z,3.40
2017-10-30T05:30:39.114Z,2.60
2017-10-30T05:33:07.490Z,3.67
2017-10-30T05:35:35.874Z,2.72
2017-10-30T05:38:04.253Z,3.83
2017-10-30T05:40:32.593Z,2.10
2017-10-30T05:43:00.174Z,2.45
2017-10-30T05:45:28.554Z,2.67
2017-10-30T05:47:56.938Z,2.80
2017-10-30T05:50:25.314Z,3.12
2017-10-30T05:52:53.786Z,3.50
2017-10-30T05:55:22.125Z,3.33
2017-10-30T05:57:49.701Z,3.28
2017-10-30T06:00:17.334Z,2.80
2017-10-30T06:02:44.909Z,3.60
2017-10-30T06:05:12.498Z,2.87
2017-10-30T06:07:40.864Z,3.33
2017-10-30T06:10:08.442Z,2.55
2017-10-30T06:12:36.779Z,3.00
2017-10-30T06:15:04.399Z,2.60
2017-10-30T06:17:32.035Z,3.50
2017-10-30T06:20:00.382Z,2.40
2017-10-30T06:22:28.071Z,2.65
2017-10-30T06:24:56.450Z,3.25
2017-10-30T06:27:24.822Z,3.00
2017-10-30T06:29:53.218Z,2.15
2017-10-30T06:32:20.803Z,3.25
2017-10-30T06:34:48.421Z,3.90
2017-10-30T06:37:16.822Z,2.80
2017-10-30T06:39:44.397Z,2.70
2017-10-30T06:42:11.971Z,3.35
2017-10-30T06:44:39.774Z,4.10
2017-10-30T06:47:07.368Z,3.10
2017-10-30T06:49:34.949Z,2.80
2017-10-30T06:52:02.634Z,2.22
2017-10-30T06:54:30.210Z,2.97
2017-10-30T06:56:57.791Z,3.40
2017-10-30T06:59:25.438Z,2.95
2017-10-30T07:01:53.819Z,3.50
2017-10-30T07:04:22.167Z,3.15
2017-10-30T07:06:49.846Z,3.37
2017-10-30T07:09:18.200Z,3.53
2017-10-30T07:11:45.784Z,3.55
2017-10-30T07:14:14.181Z,3.22
2017-10-30T07:16:41.822Z,3.20
2017-10-30T07:19:10.161Z,5.70
2017-10-30T07:21:37.866Z,2.90
2017-10-30T07:24:06.225Z,5.90
2017-10-30T07:26:33.798Z,3.70
2017-10-30T07:29:02.197Z,3.50
2017-10-30T07:31:29.790Z,3.53
2017-10-30T07:33:57.371Z,2.40
2017-10-30T07:36:24.973Z,2.87
2017-10-30T07:38:52.614Z,2.05
2017-10-30T07:41:21.090Z,2.80
2017-10-30T07:43:49.434Z,3.22
2017-10-30T07:46:17.037Z,2.97
2017-10-30T07:48:45.434Z,2.85
2017-10-30T07:51:13.071Z,4.32
2017-10-30T07:53:41.418Z,3.67
2017-10-30T07:56:09.098Z,3.30
2017-10-30T07:58:37.485Z,3.20
2017-10-30T08:01:05.826Z,3.30
2017-10-30T08:03:33.523Z,3.62
2017-10-30T08:06:01.868Z,4.18
2017-10-30T08:08:29.514Z,3.83
2017-10-30T08:10:57.093Z,2.80
2017-10-30T08:13:24.674Z,2.90
2017-10-30T08:15:53.155Z,2.62
2017-10-30T08:18:21.534Z,2.85
2017-10-30T08:20:49.902Z,4.55
2017-10-30T08:23:18.298Z,3.67
2017-10-30T08:25:45.876Z,3.45
2017-10-30T08:28:13.498Z,3.10
2017-10-30T08:30:41.982Z,2.65
2017-10-30T08:33:10.354Z,3.03
2017-10-30T08:35:38.730Z,3.45
2017-10-30T08:38:07.099Z,3.37
2017-10-30T08:40:35.458Z,3.50
2017-10-30T08:43:03.038Z,2.97
2017-10-30T08:45:30.638Z,3.28
2017-10-30T08:47:58.265Z,4.35
2017-10-30T08:50:26.745Z,3.05
2017-10-30T08:52:55.090Z,3.83
2017-10-30T08:55:22.666Z,4.22
2017-10-30T08:57:50.287Z,3.60
2017-10-30T09:00:17.870Z,4.80
2017-10-30T09:02:45.450Z,3.03
2017-10-30T09:05:13.118Z,3.25
2017-10-30T09:07:41.466Z,4.20
2017-10-30T09:10:09.053Z,3.17
2017-10-30T09:12:37.451Z,3.50
2017-10-30T09:15:05.090Z,2.90
2017-10-30T09:17:33.434Z,2.80
2017-10-30T09:20:01.038Z,3.55
2017-10-30T09:22:29.387Z,3.28
2017-10-30T09:24:57.023Z,4.12
2017-10-30T09:27:24.606Z,3.33
2017-10-30T09:29:52.186Z,3.08
2017-10-30T09:32:20.571Z,2.90
2017-10-30T09:34:48.217Z,3.00
2017-10-30T09:37:16.564Z,3.22
2017-10-30T09:39:44.165Z,2.35
2017-10-30T09:42:12.502Z,3.65
2017-10-30T09:44:40.155Z,3.25
2017-10-30T09:47:07.742Z,2.60
2017-10-30T09:49:35.317Z,2.50
2017-10-30T09:52:03.685Z,4.40
2017-10-30T09:54:32.057Z,2.30
2017-10-30T09:57:00.567Z,2.65
2017-10-30T09:59:28.202Z,3.22
2017-10-30T10:01:56.553Z,3.00
2017-10-30T10:04:24.202Z,2.03
2017-10-30T10:06:51.799Z,2.10
2017-10-30T10:09:20.137Z,1.70
2017-10-30T10:11:47.838Z,2.00
2017-10-30T10:14:16.214Z,2.55
2017-10-30T10:16:44.565Z,2.85
2017-10-30T10:19:13.069Z,2.78
2017-10-30T10:21:41.420Z,2.40
2017-10-30T10:24:09.160Z,2.83
2017-10-30T10:26:36.865Z,1.90
2017-10-30T10:29:05.210Z,1.90
2017-10-30T10:31:32.792Z,2.20
2017-10-30T10:34:01.186Z,2.08
2017-10-30T10:36:29.540Z,1.60
2017-10-30T10:38:57.123Z,1.85
2017-10-30T10:41:25.602Z,1.75
2017-10-30T10:43:53.976Z,2.10
2017-10-30T10:46:22.322Z,1.90
2017-10-30T10:48:49.925Z,1.70
2017-10-30T10:51:18.266Z,1.65
2017-10-30T10:53:45.899Z,1.73
2017-10-30T10:56:13.534Z,1.83
2017-10-30T10:58:41.115Z,1.40
2017-10-30T11:01:08.689Z,1.23
2017-10-30T11:03:36.293Z,1.48
2017-10-30T11:06:04.638Z,1.20
2017-10-30T11:08:32.324Z,2.00
2017-10-30T11:11:00.666Z,1.25
2017-10-30T11:13:28.266Z,1.30
2017-10-30T11:15:56.734Z,1.60
2017-10-30T11:18:25.165Z,1.20
2017-10-30T11:20:52.742Z,1.40
2017-10-30T11:23:20.429Z,0.88
2017-10-30T11:25:48.008Z,1.00
2017-10-30T11:28:16.341Z,1.48
2017-10-30T11:30:44.140Z,1.20
2017-10-30T11:33:12.491Z,1.60
2017-10-30T11:35:40.890Z,1.10
2017-10-30T11:38:09.288Z,1.25
2017-10-30T11:40:36.975Z,0.80
2017-10-30T11:43:04.550Z,1.10
2017-10-30T11:45:32.174Z,1.00
2017-10-30T11:47:59.811Z,1.45
2017-10-30T11:50:28.154Z,1.30
2017-10-30T11:52:55.846Z,1.00
2017-10-30T11:55:24.186Z,1.73
2017-10-30T11:57:51.782Z,1.15
2017-10-30T12:00:20.254Z,1.80
2017-10-30T12:02:48.636Z,0.90
2017-10-30T12:05:16.983Z,1.08
2017-10-30T12:07:44.623Z,1.30
2017-10-30T12:10:12.329Z,1.52
2017-10-30T12:12:40.682Z,1.15
2017-10-30T12:15:08.258Z,0.88
2017-10-30T12:17:35.857Z,1.17
2017-10-30T12:20:03.641Z,1.00
2017-10-30T12:22:31.256Z,0.80
2017-10-30T12:24:59.639Z,1.00
2017-10-30T12:27:27.978Z,1.12
2017-10-30T12:29:55.568Z,0.93
2017-10-30T12:32:23.948Z,1.00
2017-10-30T12:34:52.317Z,1.12
2017-10-30T12:37:20.795Z,0.90
2017-10-30T12:39:49.170Z,1.12
2017-10-30T12:42:17.522Z,1.33
2017-10-30T12:44:45.127Z,1.10
2017-10-30T12:47:12.773Z,0.98
2017-10-30T12:49:41.154Z,1.25
2017-10-30T12:52:09.523Z,1.10
2017-10-30T12:54:37.866Z,1.10
2017-10-30T12:57:05.462Z,0.90
2017-10-30T12:59:33.838Z,1.00
2017-10-30T13:02:02.214Z,1.05
2017-10-30T13:04:30.562Z,1.00
2017-10-30T13:06:58.261Z,1.10
2017-10-30T13:09:26.647Z,1.90
2017-10-30T13:11:54.444Z,1.00
2017-10-30T13:14:22.051Z,1.75
2017-10-30T13:16:50.397Z,1.17
2017-10-30T13:19:18.946Z,1.05
2017-10-30T13:21:46.535Z,1.08
2017-10-30T13:24:14.109Z,0.93
2017-10-30T13:26:41.790Z,0.73
2017-10-30T13:29:10.135Z,1.10
2017-10-30T13:31:37.714Z,0.80
2017-10-30T13:34:05.314Z,1.00
2017-10-30T13:36:32.886Z,1.50
2017-10-30T13:39:00.466Z,0.90
2017-10-30T13:41:28.090Z,0.88
2017-10-30T13:43:55.678Z,1.05
2017-10-30T13:46:23.251Z,1.15
2017-10-30T13:48:50.986Z,0.90
2017-10-30T13:51:18.563Z,0.80
2017-10-30T13:53:46.150Z,1.70
2017-10-30T13:56:14.525Z,1.00
2017-10-30T13:58:42.098Z,1.00
2017-10-30T14:01:10.435Z,1.05
2017-10-30T14:03:38.061Z,1.33
2017-10-30T14:06:05.630Z,1.23
2017-10-30T14:08:33.202Z,1.60
2017-10-30T14:11:00.806Z,1.77
2017-10-30T14:13:29.182Z,1.25
2017-10-30T14:15:57.567Z,1.12
2017-10-30T14:18:25.938Z,0.90
2017-10-30T14:20:54.278Z,1.65
2017-10-30T14:23:21.878Z,0.90
2017-10-30T14:25:50.240Z,1.75
2017-10-30T14:28:17.823Z,1.15
2017-10-30T14:30:45.398Z,1.10
2017-10-30T14:33:13.130Z,1.95
2017-10-30T14:35:41.478Z,1.50
2017-10-30T14:38:09.071Z,1.20
2017-10-30T14:40:36.837Z,1.30
2017-10-30T14:43:05.203Z,1.75
2017-10-30T14:45:33.546Z,1.10
2017-10-30T14:48:01.163Z,0.93
2017-10-30T14:50:28.744Z,4.07
2017-10-30T14:52:56.325Z,3.30
2017-10-30T14:55:24.017Z,1.35
2017-10-30T14:57:52.361Z,1.80
2017-10-30T15:00:19.999Z,2.47
2017-10-30T15:02:47.575Z,1.20
2017-10-30T15:05:15.152Z,1.62
2017-10-30T15:07:42.760Z,1.33
2017-10-30T15:10:10.333Z,1.60
2017-10-30T15:12:37.905Z,1.17
2017-10-30T15:15:05.531Z,0.93
2017-10-30T15:17:33.111Z,0.90
2017-10-30T15:20:00.695Z,1.40
2017-10-30T15:22:28.383Z,1.65
2017-10-30T15:24:56.735Z,1.70
2017-10-30T15:27:24.406Z,1.80
2017-10-30T15:29:52.078Z,1.50
2017-10-30T15:32:20.462Z,1.37
2017-10-30T15:34:48.855Z,1.37
2017-10-30T15:37:16.514Z,1.48
2017-10-30T15:39:44.085Z,2.05
2017-10-30T15:42:11.690Z,1.90
2017-10-30T15:44:39.373Z,1.87
2017-10-30T15:47:07.763Z,4.03
2017-10-30T15:49:35.342Z,2.75
2017-10-30T15:52:02.942Z,3.30
2017-10-30T15:54:30.553Z,2.60
2017-10-30T15:56:58.131Z,2.62
2017-10-30T15:59:25.745Z,2.15
2017-10-30T16:01:54.135Z,2.35
2017-10-30T16:04:22.474Z,1.70
2017-10-30T16:06:50.046Z,1.85
2017-10-30T16:09:17.658Z,3.85
2017-10-30T16:11:45.233Z,3.53
2017-10-30T16:14:12.814Z,2.33
2017-10-30T16:16:41.920Z,1.83
2017-10-30T16:19:10.310Z,2.55
2017-10-30T16:21:38.671Z,3.22
2017-10-30T16:24:06.279Z,2.92
2017-10-30T16:26:33.867Z,3.12
2017-10-30T16:29:01.450Z,2.92
2017-10-30T16:31:29.126Z,2.65
2017-10-30T16:33:57.470Z,2.70
2017-10-30T16:36:25.057Z,2.70
2017-10-30T16:38:53.445Z,2.58
2017-10-30T16:41:21.795Z,2.00
2017-10-30T16:43:49.370Z,4.10
2017-10-30T16:46:17.781Z,4.15
2017-10-30T16:48:45.363Z,3.70
2017-10-30T16:51:12.941Z,4.30
2017-10-30T16:53:40.570Z,3.65
2017-10-30T16:56:08.151Z,3.53
2017-10-30T16:58:35.727Z,3.92
2017-10-30T17:01:03.333Z,3.97
2017-10-30T17:03:30.957Z,3.70
2017-10-30T17:05:59.350Z,3.30
2017-10-30T17:08:27.698Z,3.30
2017-10-30T17:10:55.273Z,4.22
2017-10-30T17:13:23.765Z,5.30
2017-10-30T17:15:52.186Z,4.28
2017-10-30T17:18:19.797Z,3.50
2017-10-30T17:20:47.442Z,4.85
2017-10-30T17:23:15.024Z,4.10
2017-10-30T17:25:42.610Z,4.47
2017-10-30T17:28:10.224Z,5.07
2017-10-30T17:30:38.570Z,4.93
2017-10-30T17:33:06.170Z,4.65
2017-10-30T17:35:34.563Z,5.72
2017-10-30T17:38:02.142Z,5.25
2017-10-30T17:40:29.731Z,5.25
2017-10-30T17:42:57.338Z,5.68
2017-10-30T17:45:24.930Z,6.53
2017-10-30T17:47:52.530Z,7.90
2017-10-30T17:50:20.203Z,8.93
2017-10-30T17:52:48.581Z,12.15
2017-10-30T17:55:17.054Z,11.10
2017-10-30T17:57:45.486Z,13.27
2017-10-30T18:00:13.066Z,12.40
2017-10-30T18:02:40.686Z,11.23
2017-10-30T18:05:08.266Z,11.50
2017-10-30T18:07:35.873Z,9.98
2017-10-30T18:10:04.254Z,11.15
2017-10-30T18:12:32.600Z,14.48
2017-10-30T18:15:00.188Z,10.38
2017-10-30T18:17:27.830Z,10.07
2017-10-30T18:19:55.506Z,11.25
2017-10-30T18:22:26.661Z,10.68
2017-10-30T18:24:54.285Z,11.65
2017-10-30T18:27:21.970Z,10.13
2017-10-30T18:29:50.346Z,10.43
2017-10-30T18:32:18.819Z,11.18
2017-10-30T18:34:47.209Z,10.63
2017-10-30T18:37:15.562Z,10.75
2017-10-30T18:39:43.243Z,11.63
2017-10-30T18:42:11.620Z,10.70
2017-10-30T18:44:39.969Z,11.95
2017-10-30T18:47:07.585Z,11.18
2017-10-30T18:49:35.166Z,11.60
2017-10-30T18:52:02.770Z,11.25
2017-10-30T18:54:31.172Z,12.37
2017-10-30T18:56:58.822Z,12.13
2017-10-30T18:59:26.408Z,12.35
2017-10-30T19:01:54.046Z,12.43
2017-10-30T19:04:21.687Z,11.20
2017-10-30T19:06:50.038Z,12.43
2017-10-30T19:09:17.674Z,11.70
2017-10-30T19:11:45.253Z,12.43
2017-10-30T19:14:12.830Z,11.15
2017-10-30T19:16:40.507Z,10.10
2017-10-30T19:19:08.858Z,10.27
2017-10-30T19:21:37.977Z,10.82
2017-10-30T19:24:06.454Z,9.63
2017-10-30T19:26:34.802Z,10.45
2017-10-30T19:29:02.645Z,12.23
2017-10-30T19:31:30.273Z,11.82
2017-10-30T19:33:57.854Z,11.82
2017-10-30T19:36:25.523Z,11.93
2017-10-30T19:38:53.233Z,11.10
2017-10-30T19:41:21.613Z,11.50
2017-10-30T19:43:50.270Z,9.50
2017-10-30T19:46:17.871Z,9.65
2017-10-30T19:48:45.518Z,9.15
2017-10-30T19:51:13.910Z,6.60
2017-10-30T19:53:41.490Z,7.72
2017-10-30T19:56:09.106Z,6.18
2017-10-30T19:58:37.504Z,5.57
2017-10-30T20:01:05.151Z,5.32
2017-10-30T20:03:34.071Z,6.32
2017-10-30T20:06:07.783Z,6.00
2017-10-30T20:08:41.173Z,6.97
2017-10-30T20:11:14.458Z,6.50
2017-10-30T20:13:42.091Z,6.37
2017-10-30T20:16:10.621Z,5.95
2017-10-30T20:18:38.688Z,5.30
2017-10-30T20:21:06.894Z,6.78
2017-10-30T20:23:35.102Z,6.25
2017-10-30T20:26:02.722Z,5.90
2017-10-30T20:28:30.304Z,5.70
2017-10-30T20:30:58.686Z,4.75
2017-10-30T20:33:27.107Z,6.45
2017-10-30T20:35:54.689Z,4.65
2017-10-30T20:38:22.579Z,4.47
2017-10-30T20:40:50.965Z,4.00
2017-10-30T20:43:19.751Z,4.72
2017-10-30T20:45:48.336Z,3.83
2017-10-30T20:48:16.706Z,4.53
2017-10-30T20:50:45.058Z,4.62
2017-10-30T20:53:12.666Z,4.90
2017-10-30T20:55:40.251Z,4.45
2017-10-30T20:58:07.865Z,5.12
2017-10-30T21:00:36.496Z,4.43
2017-10-30T21:03:04.082Z,4.22
2017-10-30T21:05:31.690Z,4.12
2017-10-30T21:07:59.267Z,3.80
2017-10-30T21:10:26.841Z,4.80
2017-10-30T21:12:54.544Z,4.25
2017-10-30T21:15:22.881Z,4.10
2017-10-30T21:17:50.478Z,3.12
2017-10-30T21:20:18.946Z,3.92
2017-10-30T21:22:46.619Z,3.80
2017-10-30T21:25:14.962Z,3.30
2017-10-30T21:27:42.656Z,4.10
2017-10-30T21:30:11.130Z,4.35
2017-10-30T21:32:39.631Z,3.67
2017-10-30T21:35:07.206Z,4.15
2017-10-30T21:37:34.784Z,4.20
2017-10-30T21:40:02.479Z,3.72
2017-10-30T21:42:30.058Z,4.05
2017-10-30T21:44:58.426Z,3.25
2017-10-30T21:47:26.822Z,4.22
2017-10-30T21:49:54.401Z,4.00
2017-10-30T21:52:21.978Z,3.72
2017-10-30T21:54:49.594Z,4.05
2017-10-30T21:57:17.242Z,4.32
2017-10-30T21:59:45.589Z,3.85
2017-10-30T22:02:13.285Z,4.30
2017-10-30T22:04:41.626Z,4.45
2017-10-30T22:07:09.215Z,3.90
2017-10-30T22:09:37.881Z,4.50
2017-10-30T22:12:05.562Z,4.90
2017-10-30T22:14:33.938Z,5.47
2017-10-30T22:17:02.306Z,4.20
2017-10-30T22:19:30.655Z,4.65
2017-10-30T22:21:58.298Z,4.40
2017-10-30T22:24:25.914Z,4.32
2017-10-30T22:26:54.286Z,4.37
2017-10-30T22:29:22.654Z,3.60
2017-10-30T22:31:50.234Z,4.18
2017-10-30T22:34:18.790Z,4.53
2017-10-30T22:36:46.374Z,3.97
2017-10-30T22:39:14.718Z,3.45
2017-10-30T22:41:42.398Z,4.10
2017-10-30T22:44:10.885Z,4.03
2017-10-30T22:46:39.235Z,4.40
2017-10-30T22:49:06.918Z,4.10
2017-10-30T22:51:35.253Z,4.30
2017-10-30T22:54:02.858Z,4.07
2017-10-30T22:56:31.226Z,3.97
2017-10-30T22:58:59.569Z,4.20
2017-10-30T23:01:27.193Z,5.35
2017-10-30T23:03:54.770Z,5.10
2017-10-30T23:06:22.349Z,4.55
2017-10-30T23:08:49.993Z,4.80
2017-10-30T23:11:17.570Z,3.75
2017-10-30T23:13:45.914Z,4.70
2017-10-30T23:16:13.552Z,4.00
2017-10-30T23:18:41.893Z,4.62
2017-10-30T23:21:09.465Z,3.40
2017-10-30T23:23:37.129Z,4.00
2017-10-30T23:26:05.469Z,4.57
2017-10-30T23:28:33.045Z,4.78
